Grand Isle, Louisiana
Current Conditions -  °F | °C
As of 6:15 AM on Friday 24 Oct 2014 (Local Time) from KXPY Reporting Station
Clear Clear  
Wind Chill: 64°   Ceiling: Unl
Heat Index: 64°   Visibility: 10mi
Dew Point: 57°   Wind: 9mph
Humidity: 77%   Direction: 10°N
Pressure: 30.1"   Gusts: NA
Location:  29.24°N, 89.99°W
Report Text: KXPY 241115Z AUTO 01008KT 10SM CLR 18/14 A3010 RMK A01
Loading
Personal Weather Stations






























Interactive Weather Map
Tropical Storm Tracking
New forecast layout! Learn more

10-Day Weather Forecast

Advertisements
Track Severe Weather on mobile